createdAt,value
2023-02-17T00:01:32.574Z,8.36
2023-02-17T00:06:33.752Z,8.36
2023-02-17T00:11:34.966Z,8.38
2023-02-17T00:16:36.125Z,8.43
2023-02-17T00:21:37.287Z,8.47
2023-02-17T00:26:38.569Z,8.50
2023-02-17T00:31:39.872Z,8.54
2023-02-17T00:36:41.167Z,8.56
2023-02-17T00:41:42.315Z,8.61
2023-02-17T00:46:43.556Z,8.82
2023-02-17T00:51:44.762Z,9.19
2023-02-17T00:56:45.933Z,9.40
2023-02-17T01:01:47.170Z,9.62
2023-02-17T01:06:48.358Z,9.79
2023-02-17T01:11:49.680Z,9.86
2023-02-17T01:16:50.949Z,9.90
2023-02-17T01:21:52.160Z,9.87
2023-02-17T01:26:53.414Z,9.93
2023-02-17T01:31:54.640Z,9.93
2023-02-17T01:36:55.876Z,9.97
2023-02-17T01:41:57.047Z,9.98
2023-02-17T01:46:58.285Z,10.00
2023-02-17T01:51:59.467Z,10.08
2023-02-17T01:57:00.754Z,10.11
2023-02-17T02:02:02.154Z,10.11
2023-02-17T02:07:03.431Z,10.17
2023-02-17T02:12:04.590Z,10.22
2023-02-17T02:17:05.816Z,10.19
2023-02-17T02:22:06.999Z,10.19
2023-02-17T02:27:08.257Z,10.23
2023-02-17T02:32:09.418Z,10.21
2023-02-17T02:37:10.633Z,10.27
2023-02-17T02:42:11.837Z,10.26
2023-02-17T02:47:13.026Z,10.21
2023-02-17T02:52:14.147Z,10.25
2023-02-17T02:57:15.315Z,10.27
2023-02-17T03:02:16.496Z,10.29
2023-02-17T03:07:21.366Z,10.27
2023-02-17T03:12:22.554Z,10.24
2023-02-17T03:17:23.764Z,10.28
2023-02-17T03:22:24.956Z,10.28
2023-02-17T03:27:26.164Z,10.29
2023-02-17T03:32:27.297Z,10.28
2023-02-17T03:37:28.473Z,10.24
2023-02-17T03:42:29.626Z,10.20
2023-02-17T03:47:30.885Z,10.21
2023-02-17T03:52:32.109Z,10.24
2023-02-17T03:57:34.713Z,10.27
2023-02-17T04:02:35.932Z,10.26
2023-02-17T04:07:37.166Z,10.27
2023-02-17T04:12:38.352Z,10.26
2023-02-17T04:17:39.652Z,10.24
2023-02-17T04:22:40.896Z,10.27
2023-02-17T04:27:42.157Z,10.30
2023-02-17T04:32:43.367Z,10.34
2023-02-17T04:37:44.548Z,10.31
2023-02-17T04:42:45.704Z,10.34
2023-02-17T04:47:46.926Z,10.34
2023-02-17T04:52:48.097Z,10.35
2023-02-17T04:57:49.289Z,10.33
2023-02-17T05:02:50.424Z,10.37
2023-02-17T05:07:51.570Z,10.42
2023-02-17T05:12:52.828Z,10.43
2023-02-17T05:17:54.008Z,10.44
2023-02-17T05:22:55.215Z,10.43
2023-02-17T05:27:56.471Z,10.42
2023-02-17T05:32:57.911Z,10.47
2023-02-17T05:37:59.127Z,10.29
2023-02-17T05:43:00.370Z,10.52
2023-02-17T05:48:01.590Z,10.53
2023-02-17T05:53:02.736Z,10.52
2023-02-17T05:58:04.057Z,10.58
2023-02-17T06:03:05.257Z,10.61
2023-02-17T06:08:06.701Z,10.59
2023-02-17T06:13:07.853Z,10.58
2023-02-17T06:18:09.054Z,10.59
2023-02-17T06:23:11.408Z,10.58
2023-02-17T06:28:12.622Z,10.58
2023-02-17T06:33:13.824Z,10.61
2023-02-17T06:38:15.069Z,10.62
2023-02-17T06:43:16.240Z,10.62
2023-02-17T06:48:17.418Z,10.59
2023-02-17T06:53:18.590Z,10.64
2023-02-17T06:58:19.793Z,10.70
2023-02-17T07:03:20.951Z,10.73
2023-02-17T07:08:22.110Z,10.72
2023-02-17T07:13:23.338Z,10.74
2023-02-17T07:18:24.517Z,10.75
2023-02-17T07:23:25.638Z,10.73
2023-02-17T07:28:26.856Z,10.71
2023-02-17T07:33:28.001Z,10.65
2023-02-17T07:38:29.189Z,10.67
2023-02-17T07:43:30.434Z,10.72
2023-02-17T07:48:31.577Z,10.72
2023-02-17T07:53:32.763Z,10.77
2023-02-17T07:58:34.069Z,10.82
2023-02-17T08:03:35.360Z,10.85
2023-02-17T08:08:55.399Z,10.90
2023-02-17T08:13:56.677Z,10.95
2023-02-17T08:18:57.934Z,11.06
2023-02-17T08:23:59.179Z,11.11
2023-02-17T08:29:00.414Z,11.13
2023-02-17T08:34:01.660Z,11.14
2023-02-17T08:39:02.879Z,11.21
2023-02-17T08:44:04.107Z,11.24
2023-02-17T08:49:05.315Z,11.37
2023-02-17T08:54:06.550Z,11.50
2023-02-17T08:59:08.258Z,11.55
2023-02-17T09:04:09.532Z,11.64
2023-02-17T09:09:10.793Z,11.70
2023-02-17T09:14:11.971Z,11.83
2023-02-17T09:19:13.132Z,12.02
2023-02-17T09:24:14.296Z,12.18
2023-02-17T09:29:15.560Z,12.33
2023-02-17T09:34:16.788Z,12.49
2023-02-17T09:39:17.987Z,12.71
2023-02-17T09:44:19.229Z,12.83
2023-02-17T09:49:20.393Z,12.91
2023-02-17T09:54:21.669Z,13.07
2023-02-17T09:59:22.856Z,13.25
2023-02-17T10:04:24.298Z,13.39
2023-02-17T10:09:25.618Z,13.47
2023-02-17T10:14:26.865Z,13.57
2023-02-17T10:19:28.113Z,13.76
2023-02-17T10:24:29.393Z,13.86
2023-02-17T10:29:30.685Z,13.90
2023-02-17T10:34:31.826Z,13.93
2023-02-17T10:39:33.089Z,14.12
2023-02-17T10:44:34.791Z,14.33
2023-02-17T10:49:36.047Z,14.45
2023-02-17T10:54:37.241Z,14.44
2023-02-17T10:59:38.462Z,14.32
2023-02-17T11:04:39.706Z,14.28
2023-02-17T11:09:40.873Z,14.21
2023-02-17T11:14:42.108Z,14.13
2023-02-17T11:19:43.309Z,14.18
2023-02-17T11:24:44.538Z,14.21
2023-02-17T11:29:45.868Z,14.29
2023-02-17T11:34:47.057Z,14.29
2023-02-17T11:39:48.264Z,14.37
2023-02-17T11:44:49.448Z,14.39
2023-02-17T11:49:50.744Z,14.52
2023-02-17T11:54:51.988Z,14.56
2023-02-17T11:59:53.268Z,14.64
2023-02-17T12:04:54.486Z,14.63
2023-02-17T12:09:55.728Z,14.59
2023-02-17T12:14:56.920Z,14.54
2023-02-17T12:19:58.182Z,14.50
2023-02-17T12:24:59.451Z,14.51
2023-02-17T12:30:01.297Z,14.43
2023-02-17T12:35:02.625Z,14.47
2023-02-17T12:40:03.835Z,14.54
2023-02-17T12:45:04.968Z,14.52
2023-02-17T12:50:06.166Z,14.57
2023-02-17T12:55:07.439Z,14.70
2023-02-17T13:00:08.644Z,14.94
2023-02-17T13:05:09.833Z,15.20
2023-02-17T13:10:11.043Z,15.36
2023-02-17T13:15:12.431Z,15.24
2023-02-17T13:20:14.468Z,15.01
2023-02-17T13:25:15.658Z,14.90
2023-02-17T13:30:16.817Z,14.82
2023-02-17T13:35:17.983Z,14.87
2023-02-17T13:40:19.156Z,14.94
2023-02-17T13:45:20.374Z,14.92
2023-02-17T13:50:22.027Z,14.84
2023-02-17T13:55:26.244Z,14.72
2023-02-17T14:00:27.701Z,14.65
2023-02-17T14:05:29.068Z,14.59
2023-02-17T14:10:30.240Z,14.56
2023-02-17T14:15:31.429Z,14.51
2023-02-17T14:20:32.685Z,14.41
2023-02-17T14:25:33.868Z,14.33
2023-02-17T14:30:35.210Z,14.28
2023-02-17T14:35:39.110Z,14.25
2023-02-17T14:40:40.409Z,14.24
2023-02-17T14:45:41.613Z,14.22
2023-02-17T14:50:43.936Z,14.19
2023-02-17T14:55:45.127Z,14.15
2023-02-17T15:00:46.342Z,14.09
2023-02-17T15:05:47.551Z,14.05
2023-02-17T15:10:48.713Z,13.97
2023-02-17T15:15:50.034Z,13.97
2023-02-17T15:20:51.309Z,13.92
2023-02-17T15:25:54.638Z,13.83
2023-02-17T15:30:55.855Z,13.76
2023-02-17T15:35:57.056Z,13.66
2023-02-17T15:40:58.734Z,13.55
2023-02-17T15:45:59.994Z,13.54
2023-02-17T15:51:01.177Z,13.45
2023-02-17T15:56:02.385Z,13.37
2023-02-17T16:01:04.040Z,13.28
2023-02-17T16:06:05.757Z,13.20
2023-02-17T16:11:07.173Z,13.08
2023-02-17T16:16:08.706Z,12.92
2023-02-17T16:21:10.092Z,12.76
2023-02-17T16:26:11.322Z,12.56
2023-02-17T16:31:13.086Z,12.52
2023-02-17T16:36:14.621Z,12.44
2023-02-17T16:41:15.912Z,12.36
2023-02-17T16:46:17.159Z,12.26
2023-02-17T16:51:18.419Z,12.15
2023-02-17T16:56:19.690Z,12.02
2023-02-17T17:01:22.079Z,11.93
2023-02-17T17:06:24.121Z,11.87
2023-02-17T17:11:25.360Z,11.83
2023-02-17T17:16:26.534Z,11.81
2023-02-17T17:21:27.762Z,11.81
2023-02-17T17:26:28.943Z,11.78
2023-02-17T17:31:30.249Z,11.76
2023-02-17T17:36:31.470Z,11.74
2023-02-17T17:41:32.686Z,11.72
2023-02-17T17:46:34.914Z,11.72
2023-02-17T17:51:36.103Z,11.73
2023-02-17T17:56:38.742Z,11.73
2023-02-17T18:01:39.928Z,11.72
2023-02-17T18:06:41.149Z,11.74
2023-02-17T18:11:42.351Z,11.75
2023-02-17T18:16:43.512Z,11.74
2023-02-17T18:21:44.870Z,11.72
2023-02-17T18:26:46.019Z,11.71
2023-02-17T18:31:47.309Z,11.70
2023-02-17T18:36:48.498Z,11.67
2023-02-17T18:41:49.708Z,11.63
2023-02-17T18:46:50.859Z,11.59
2023-02-17T18:51:52.131Z,11.56
2023-02-17T18:56:53.518Z,11.54
2023-02-17T19:01:54.718Z,11.52
2023-02-17T19:06:55.932Z,11.50
2023-02-17T19:11:57.115Z,11.48
2023-02-17T19:16:58.274Z,11.46
2023-02-17T19:21:59.518Z,11.44
2023-02-17T19:27:00.706Z,11.42
2023-02-17T19:32:01.940Z,11.40
2023-02-17T19:37:03.190Z,11.40
2023-02-17T19:42:04.457Z,11.36
2023-02-17T19:47:05.657Z,11.33
2023-02-17T19:52:07.457Z,11.31
2023-02-17T19:57:08.741Z,11.29
2023-02-17T20:02:09.934Z,11.25
2023-02-17T20:07:11.132Z,11.23
2023-02-17T20:12:12.359Z,11.20
2023-02-17T20:17:13.512Z,11.18
2023-02-17T20:22:14.759Z,11.16
2023-02-17T20:27:15.905Z,11.14
2023-02-17T20:32:17.165Z,11.11
2023-02-17T20:37:18.494Z,11.09
2023-02-17T20:42:19.716Z,11.07
2023-02-17T20:47:20.849Z,11.06
2023-02-17T20:52:21.990Z,11.02
2023-02-17T20:57:23.396Z,11.01
2023-02-17T21:02:24.624Z,10.98
2023-02-17T21:07:25.792Z,10.96
2023-02-17T21:12:27.071Z,10.96
2023-02-17T21:17:28.345Z,10.92
2023-02-17T21:22:29.491Z,10.93
2023-02-17T21:27:30.726Z,10.90
2023-02-17T21:32:31.889Z,10.89
2023-02-17T21:37:33.050Z,10.89
2023-02-17T21:42:53.133Z,10.87
2023-02-17T21:47:54.269Z,10.86
2023-02-17T21:52:55.414Z,10.85
2023-02-17T21:57:56.648Z,10.85
2023-02-17T22:02:57.809Z,10.86
2023-02-17T22:07:58.970Z,10.85
2023-02-17T22:13:00.180Z,10.87
2023-02-17T22:18:01.437Z,10.86
2023-02-17T22:23:02.633Z,10.86
2023-02-17T22:28:03.816Z,10.85
2023-02-17T22:33:05.073Z,10.84
2023-02-17T22:38:06.215Z,10.84
2023-02-17T22:43:07.464Z,10.83
2023-02-17T22:48:08.634Z,10.83
2023-02-17T22:53:09.801Z,10.82
2023-02-17T22:58:10.948Z,10.80
2023-02-17T23:03:12.123Z,10.79
2023-02-17T23:08:13.307Z,10.76
2023-02-17T23:13:14.499Z,10.74
2023-02-17T23:18:15.678Z,10.73
2023-02-17T23:23:16.931Z,10.73
2023-02-17T23:28:18.063Z,10.73
2023-02-17T23:33:19.273Z,10.73
2023-02-17T23:38:20.487Z,10.71
2023-02-17T23:43:22.345Z,10.71
2023-02-17T23:48:23.585Z,10.71
2023-02-17T23:53:24.830Z,10.70
2023-02-17T23:58:26.048Z,10.70
